Time;durP1;ratioP1;P1;durP2;ratioP2;P2;SDS_P1;SDS_P2;PMS_P1;PMS_P2;Temp;Humidity;BMP_temperature;BMP_pressure;BME280_temperature;BME280_humidity;BME280_pressure;Samples;Min_cycle;Max_cycle;Signal;HPM_P1;HPM_P2
2022/11/25 00:01:51;;;;;;;5.53;1.00;;;17.90;77.20;;;;;;5013502;28;20022;-71
2022/11/25 00:04:16;;;;;;;1.77;0.75;;;17.90;77.10;;;;;;5012045;28;20029;-71
2022/11/25 00:06:42;;;;;;;2.80;0.95;;;17.90;77.10;;;;;;5012543;28;20030;-71
2022/11/25 00:09:11;;;;;;;3.03;0.95;;;17.90;77.20;;;;;;5013251;28;20021;-71
2022/11/25 00:11:39;;;;;;;4.40;0.90;;;17.90;77.20;;;;;;5011911;28;20026;-71
2022/11/25 00:14:05;;;;;;;2.92;0.65;;;17.90;77.20;;;;;;5012160;28;20036;-71
2022/11/25 00:16:31;;;;;;;3.40;0.98;;;17.90;77.20;;;;;;5011791;28;20380;-71
2022/11/25 00:18:57;;;;;;;1.73;0.73;;;17.90;77.20;;;;;;5013250;28;20105;-71
2022/11/25 00:21:24;;;;;;;1.63;0.90;;;17.90;77.20;;;;;;5011732;28;20551;-71
2022/11/25 00:24:00;;;;;;;2.15;0.80;;;17.90;77.20;;;;;;5012982;28;20095;-71
2022/11/25 00:26:27;;;;;;;2.70;0.90;;;17.90;77.30;;;;;;5011878;28;20141;-72
2022/11/25 00:28:52;;;;;;;2.15;0.80;;;17.90;77.20;;;;;;5011956;28;20088;-72
2022/11/25 00:31:22;;;;;;;2.22;0.90;;;17.90;77.30;;;;;;5011946;28;20480;-72
2022/11/25 00:33:48;;;;;;;2.88;1.20;;;17.90;77.30;;;;;;5011856;28;20029;-72
2022/11/25 00:36:35;;;;;;;3.78;1.00;;;17.90;77.30;;;;;;5027423;28;20029;-72
2022/11/25 00:39:05;;;;;;;3.42;0.88;;;17.90;77.20;;;;;;5031295;28;20083;-71
2022/11/25 00:44:34;;;;;;;1.23;0.75;;;18.00;77.30;;;;;;5031154;28;20033;-71
2022/11/25 00:47:08;;;;;;;1.17;0.70;;;17.90;77.40;;;;;;5011668;28;20025;-72
2022/11/25 00:49:33;;;;;;;2.65;0.70;;;17.90;77.40;;;;;;5011358;28;20028;-72
2022/11/25 00:51:59;;;;;;;1.83;0.70;;;18.00;77.50;;;;;;5012866;28;20034;-72
2022/11/25 00:54:25;;;;;;;2.30;0.77;;;18.00;77.50;;;;;;5012629;28;20026;-72
2022/11/25 00:56:50;;;;;;;2.42;0.80;;;18.00;77.50;;;;;;5012197;28;20048;-72
2022/11/25 00:59:16;;;;;;;2.53;0.82;;;18.00;77.50;;;;;;5012762;28;20026;-72
2022/11/25 01:01:42;;;;;;;1.58;0.77;;;18.00;77.50;;;;;;5012562;28;20497;-72
2022/11/25 01:04:07;;;;;;;1.83;0.77;;;17.90;77.50;;;;;;5011341;28;20491;-72
2022/11/25 01:06:33;;;;;;;3.85;0.60;;;18.00;77.50;;;;;;5011391;28;20022;-71
2022/11/25 01:08:59;;;;;;;2.30;0.90;;;17.90;77.50;;;;;;5012540;28;20104;-71
2022/11/25 01:11:25;;;;;;;3.97;0.77;;;18.00;77.60;;;;;;5011417;28;20053;-71
2022/11/25 01:13:53;;;;;;;2.08;0.95;;;18.00;77.60;;;;;;5011292;28;20033;-71
2022/11/25 01:16:19;;;;;;;1.48;0.60;;;17.90;77.50;;;;;;5011383;28;20022;-71
2022/11/25 01:18:45;;;;;;;1.17;0.70;;;18.00;77.60;;;;;;5012043;28;20049;-71
2022/11/25 01:21:11;;;;;;;3.17;0.93;;;18.00;77.50;;;;;;5015280;28;20029;-71
2022/11/25 01:23:37;;;;;;;1.90;0.77;;;18.00;77.60;;;;;;5014956;28;20469;-71
2022/11/25 01:26:04;;;;;;;2.90;0.77;;;18.00;77.70;;;;;;5015145;28;20053;-71
2022/11/25 01:28:30;;;;;;;2.75;0.75;;;18.00;77.60;;;;;;5015018;28;20515;-71
2022/11/25 01:31:03;;;;;;;1.65;0.68;;;18.00;77.60;;;;;;5015090;28;20104;-71
2022/11/25 01:33:31;;;;;;;2.45;0.70;;;18.00;77.60;;;;;;5014663;28;20018;-71
2022/11/25 01:36:03;;;;;;;1.52;0.73;;;18.00;77.70;;;;;;5028676;28;20030;-71
2022/11/25 01:38:29;;;;;;;4.13;0.85;;;18.00;77.70;;;;;;5034907;28;20079;-71
2022/11/25 01:40:55;;;;;;;1.83;0.70;;;18.00;77.70;;;;;;5017984;28;20029;-71
2022/11/25 01:43:21;;;;;;;2.60;0.65;;;18.00;77.80;;;;;;5034723;28;20013;-71
2022/11/25 01:45:46;;;;;;;1.13;0.80;;;18.00;77.80;;;;;;5021571;28;20068;-71
2022/11/25 01:48:44;;;;;;;1.98;0.70;;;18.00;77.80;;;;;;5015676;28;20053;-71
2022/11/25 01:51:27;;;;;;;4.10;0.60;;;18.00;77.80;;;;;;5014934;28;20040;-71
2022/11/25 01:53:56;;;;;;;4.05;0.82;;;18.00;77.80;;;;;;5014552;28;20022;-71
2022/11/25 01:56:22;;;;;;;2.33;0.60;;;18.00;77.90;;;;;;5014545;28;20040;-71
2022/11/25 01:58:47;;;;;;;2.35;0.57;;;18.00;77.90;;;;;;5014308;28;20112;-71
2022/11/25 02:01:13;;;;;;;2.38;0.55;;;17.90;77.80;;;;;;5015841;28;20026;-71
2022/11/25 02:03:41;;;;;;;1.23;0.80;;;18.00;77.80;;;;;;5014138;28;20021;-71
2022/11/25 02:06:10;;;;;;;1.48;0.63;;;18.00;77.80;;;;;;5014403;28;20388;-71
2022/11/25 02:08:36;;;;;;;1.65;0.60;;;18.00;77.80;;;;;;5014428;28;20109;-71
2022/11/25 02:11:03;;;;;;;4.05;0.93;;;18.00;77.90;;;;;;5014343;28;20136;-71
2022/11/25 02:13:29;;;;;;;2.92;0.60;;;18.00;77.90;;;;;;5014270;28;20553;-71
2022/11/25 02:15:55;;;;;;;3.88;0.80;;;18.00;77.90;;;;;;5014175;28;20021;-71
2022/11/25 02:18:20;;;;;;;1.95;0.70;;;18.00;77.90;;;;;;5013902;28;20393;-71
2022/11/25 02:20:46;;;;;;;3.38;0.80;;;18.00;77.90;;;;;;5015131;28;20026;-71
2022/11/25 02:23:35;;;;;;;4.00;0.90;;;18.00;77.90;;;;;;5014019;28;20026;-71
2022/11/25 02:26:01;;;;;;;1.70;0.68;;;18.00;77.90;;;;;;5019880;28;20022;-71
2022/11/25 02:28:29;;;;;;;4.30;0.85;;;18.00;78.00;;;;;;5034005;28;20071;-71
2022/11/25 02:30:55;;;;;;;2.22;0.90;;;18.00;77.20;;;;;;5033296;28;20109;-71
2022/11/25 02:33:21;;;;;;;1.65;0.70;;;17.90;77.20;;;;;;5034224;28;20583;-72
2022/11/25 02:35:53;;;;;;;1.15;0.80;;;17.90;77.40;;;;;;5033759;28;20033;-72
2022/11/25 02:38:44;;;;;;;2.63;0.95;;;18.00;77.40;;;;;;5034155;28;20434;-71
2022/11/25 02:41:13;;;;;;;1.95;0.65;;;18.00;77.30;;;;;;5035383;28;20026;-71
2022/11/25 02:43:39;;;;;;;2.58;0.93;;;18.00;77.30;;;;;;5033722;28;20022;-71
2022/11/25 02:46:09;;;;;;;5.05;0.90;;;18.00;77.20;;;;;;5018356;28;20026;-71
2022/11/25 02:48:36;;;;;;;9.18;0.82;;;18.00;77.30;;;;;;5015251;28;20432;-71
2022/11/25 02:51:03;;;;;;;1.48;0.60;;;18.00;77.20;;;;;;5013989;28;20064;-71
2022/11/25 02:53:28;;;;;;;3.42;0.80;;;18.00;77.20;;;;;;5013947;28;20025;-71
2022/11/25 02:55:54;;;;;;;8.02;0.88;;;18.00;77.30;;;;;;5014951;28;20037;-70
2022/11/25 02:58:20;;;;;;;5.20;1.00;;;18.00;77.30;;;;;;5014847;28;20116;-70
2022/11/25 03:00:46;;;;;;;6.25;1.40;;;18.00;77.30;;;;;;5013484;28;20457;-70
2022/11/25 03:03:12;;;;;;;2.08;0.70;;;18.00;77.30;;;;;;5013971;28;20031;-70
2022/11/25 03:05:37;;;;;;;5.50;1.23;;;18.00;77.40;;;;;;5013607;28;20025;-70
2022/11/25 03:08:03;;;;;;;3.50;0.77;;;18.00;77.50;;;;;;5013697;28;20087;-69
2022/11/25 03:10:29;;;;;;;2.05;0.63;;;18.00;77.60;;;;;;5013624;28;20069;-71
2022/11/25 03:12:55;;;;;;;4.82;1.10;;;18.00;77.60;;;;;;5013564;28;20058;-71
2022/11/25 03:15:20;;;;;;;4.18;0.98;;;18.00;77.60;;;;;;5014788;28;20029;-71
2022/11/25 03:17:46;;;;;;;3.70;0.82;;;18.00;77.70;;;;;;5013459;28;20025;-71
2022/11/25 03:20:13;;;;;;;2.10;0.65;;;18.00;77.60;;;;;;5013644;28;20033;-71
2022/11/25 03:22:40;;;;;;;8.90;1.73;;;18.00;77.60;;;;;;5014563;28;20022;-71
2022/11/25 03:25:05;;;;;;;1.25;0.63;;;18.00;77.70;;;;;;5014372;28;20026;-71
2022/11/25 03:27:32;;;;;;;2.33;0.70;;;18.00;77.70;;;;;;5013464;28;20030;-71
2022/11/25 03:29:58;;;;;;;2.30;0.80;;;18.00;77.70;;;;;;5013187;28;20129;-71
2022/11/25 03:32:24;;;;;;;2.28;0.50;;;18.00;77.70;;;;;;5014451;28;20045;-71
2022/11/25 03:34:49;;;;;;;2.92;0.85;;;18.00;77.70;;;;;;5017646;28;20034;-71
2022/11/25 03:37:15;;;;;;;1.08;0.60;;;18.00;77.70;;;;;;5033616;28;20048;-71
2022/11/25 03:39:41;;;;;;;5.47;0.98;;;18.00;77.70;;;;;;5033725;28;20162;-70
2022/11/25 03:42:06;;;;;;;3.70;0.70;;;18.00;77.80;;;;;;5033380;28;20067;-71
2022/11/25 03:44:32;;;;;;;5.00;0.85;;;18.00;77.70;;;;;;5033746;28;20048;-71
2022/11/25 03:46:57;;;;;;;2.65;0.70;;;18.00;77.80;;;;;;5034086;28;20021;-71
2022/11/25 03:49:23;;;;;;;2.22;0.52;;;18.00;77.90;;;;;;5034062;28;20025;-71
2022/11/25 03:51:49;;;;;;;3.05;0.77;;;18.00;77.90;;;;;;5033987;28;20048;-71
2022/11/25 03:54:14;;;;;;;5.07;0.75;;;18.00;77.90;;;;;;5033866;28;20393;-71
2022/11/25 03:56:40;;;;;;;2.20;0.80;;;18.00;77.80;;;;;;5033712;28;20081;-71
2022/11/25 03:59:05;;;;;;;1.48;0.80;;;18.00;77.90;;;;;;5033448;28;20108;-71
2022/11/25 04:01:31;;;;;;;1.80;0.80;;;18.00;77.90;;;;;;5032641;28;20341;-71
2022/11/25 04:03:57;;;;;;;2.08;0.80;;;18.00;77.80;;;;;;5033806;28;20025;-71
2022/11/25 04:06:22;;;;;;;4.20;1.00;;;18.00;77.90;;;;;;5033856;28;20108;-71
2022/11/25 04:08:49;;;;;;;1.85;0.63;;;18.00;77.90;;;;;;5033513;28;20032;-71
2022/11/25 04:11:15;;;;;;;2.63;0.70;;;18.00;77.90;;;;;;5032646;28;20026;-71
2022/11/25 04:13:40;;;;;;;3.05;1.02;;;18.00;77.80;;;;;;5032193;28;20037;-71
2022/11/25 04:16:06;;;;;;;3.00;0.82;;;18.00;77.80;;;;;;5032502;28;20040;-71
2022/11/25 04:18:31;;;;;;;1.75;0.90;;;18.00;77.80;;;;;;5032387;28;20116;-71
2022/11/25 04:20:57;;;;;;;1.67;0.50;;;18.00;77.80;;;;;;5032186;28;20027;-71
2022/11/25 04:23:23;;;;;;;3.15;0.70;;;18.00;77.90;;;;;;5033431;28;20036;-71
2022/11/25 04:25:49;;;;;;;2.08;0.68;;;18.00;77.80;;;;;;5015798;28;20375;-71
2022/11/25 04:28:15;;;;;;;2.90;0.90;;;18.00;77.80;;;;;;5031891;28;20484;-71
2022/11/25 04:30:41;;;;;;;2.42;0.70;;;18.00;77.90;;;;;;5015747;28;20104;-71
2022/11/25 04:33:06;;;;;;;5.15;0.98;;;18.00;77.90;;;;;;5031933;28;20464;-71
2022/11/25 04:35:32;;;;;;;4.60;1.13;;;18.10;78.00;;;;;;5032983;28;20072;-71
2022/11/25 04:37:58;;;;;;;2.15;0.80;;;18.00;77.90;;;;;;5015571;28;20048;-71
2022/11/25 04:40:23;;;;;;;11.70;1.10;;;18.00;78.90;;;;;;5033184;28;20079;-71
2022/11/25 04:42:49;;;;;;;1.92;0.88;;;18.00;77.90;;;;;;5031662;28;20025;-71
2022/11/25 04:45:16;;;;;;;1.15;0.57;;;18.00;78.90;;;;;;5033100;28;20063;-71
2022/11/25 04:47:42;;;;;;;2.03;0.50;;;18.00;77.90;;;;;;5031995;28;20025;-71
2022/11/25 04:50:11;;;;;;;2.85;0.60;;;18.00;77.90;;;;;;5031618;28;20109;-71
2022/11/25 04:52:37;;;;;;;3.53;0.80;;;18.00;78.00;;;;;;5031800;28;20112;-71
2022/11/25 04:55:02;;;;;;;4.18;0.55;;;18.10;78.00;;;;;;5032861;28;20105;-71
2022/11/25 04:57:28;;;;;;;5.07;0.80;;;18.00;77.90;;;;;;5032609;28;20056;-71
2022/11/25 04:59:54;;;;;;;2.35;0.65;;;18.00;78.00;;;;;;5031615;28;20064;-71
2022/11/25 05:02:24;;;;;;;2.60;0.60;;;18.00;78.00;;;;;;5032912;28;20030;-71
2022/11/25 05:04:51;;;;;;;1.85;0.73;;;18.10;78.00;;;;;;5031719;28;20018;-71
2022/11/25 05:07:17;;;;;;;2.47;0.75;;;18.00;78.00;;;;;;5031783;28;20029;-71
2022/11/25 05:09:43;;;;;;;2.47;0.68;;;18.00;78.00;;;;;;5031831;28;20076;-71
2022/11/25 05:12:13;;;;;;;1.92;0.70;;;18.00;78.00;;;;;;5031320;28;20025;-71
2022/11/25 05:14:38;;;;;;;3.83;0.73;;;18.00;78.00;;;;;;5031701;28;20017;-71
2022/11/25 05:17:04;;;;;;;1.85;0.50;;;18.00;78.00;;;;;;5031442;28;20029;-71
2022/11/25 05:19:30;;;;;;;0.90;0.60;;;18.00;78.00;;;;;;5031654;28;20372;-71
2022/11/25 05:21:56;;;;;;;2.58;0.82;;;18.00;78.00;;;;;;5031777;28;20025;-71
2022/11/25 05:24:22;;;;;;;1.73;0.60;;;18.10;78.10;;;;;;5032561;28;20478;-71
2022/11/25 05:26:48;;;;;;;1.95;0.73;;;18.00;78.00;;;;;;5032634;28;20024;-71
2022/11/25 05:29:13;;;;;;;1.80;0.65;;;18.10;78.20;;;;;;5032690;28;20021;-71
2022/11/25 05:31:39;;;;;;;1.20;0.50;;;18.10;78.20;;;;;;5032737;28;20488;-72
2022/11/25 05:34:04;;;;;;;2.42;0.77;;;18.10;78.10;;;;;;5032609;28;20476;-72
2022/11/25 05:36:30;;;;;;;2.58;0.70;;;18.00;78.10;;;;;;5031355;28;20033;-71
2022/11/25 05:38:56;;;;;;;4.55;0.65;;;18.00;78.10;;;;;;5031328;28;20477;-71
2022/11/25 05:41:21;;;;;;;2.78;0.80;;;18.00;78.20;;;;;;5032673;28;20519;-70
2022/11/25 05:43:47;;;;;;;1.77;0.55;;;18.00;78.20;;;;;;5032433;28;20048;-70
2022/11/25 05:46:13;;;;;;;2.45;0.70;;;18.00;78.20;;;;;;5031311;28;20017;-70
2022/11/25 05:48:38;;;;;;;3.03;0.95;;;18.00;78.30;;;;;;5031303;28;20036;-70
2022/11/25 05:51:04;;;;;;;1.95;0.50;;;18.10;78.30;;;;;;5031285;28;20072;-69
2022/11/25 05:53:30;;;;;;;2.53;0.75;;;18.00;78.30;;;;;;5031402;28;20056;-69
2022/11/25 05:55:58;;;;;;;3.17;0.70;;;18.00;78.30;;;;;;5032539;28;20067;-69
2022/11/25 05:58:24;;;;;;;2.40;0.73;;;18.00;78.30;;;;;;5031141;28;20050;-69
2022/11/25 06:00:50;;;;;;;1.55;0.65;;;18.00;78.30;;;;;;5030969;28;20032;-69
2022/11/25 06:03:16;;;;;;;2.30;0.60;;;18.00;78.60;;;;;;5031426;28;20033;-69
2022/11/25 06:05:42;;;;;;;2.63;0.70;;;18.00;78.30;;;;;;5033595;28;20112;-69
2022/11/25 06:08:07;;;;;;;1.55;0.63;;;18.00;78.40;;;;;;5034319;28;20514;-69
2022/11/25 06:10:33;;;;;;;4.10;1.20;;;18.00;78.40;;;;;;5034754;28;20030;-69
2022/11/25 06:12:59;;;;;;;2.55;0.70;;;18.00;78.50;;;;;;5034522;28;20033;-69
2022/11/25 06:15:24;;;;;;;1.63;0.60;;;18.10;78.50;;;;;;5035805;28;20028;-69
2022/11/25 06:17:50;;;;;;;3.95;0.70;;;18.00;78.60;;;;;;5035911;28;20044;-69
2022/11/25 06:20:16;;;;;;;4.55;0.88;;;18.10;78.60;;;;;;5033011;28;20017;-70
2022/11/25 06:22:41;;;;;;;1.38;0.60;;;18.10;78.70;;;;;;5034680;28;20559;-70
2022/11/25 06:25:07;;;;;;;1.55;0.70;;;18.10;78.70;;;;;;5033583;28;20030;-71
2022/11/25 06:27:33;;;;;;;1.00;0.50;;;18.10;78.70;;;;;;5035146;28;20026;-71
2022/11/25 06:29:59;;;;;;;1.42;0.57;;;18.10;78.70;;;;;;5033713;28;20079;-71
2022/11/25 06:32:24;;;;;;;5.93;0.50;;;18.10;78.70;;;;;;5035003;28;20038;-72
2022/11/25 06:34:50;;;;;;;2.60;0.50;;;18.10;78.70;;;;;;5033472;28;20044;-71
2022/11/25 06:37:16;;;;;;;1.73;0.30;;;18.10;78.70;;;;;;5034343;28;20044;-71
2022/11/25 06:39:41;;;;;;;1.85;0.45;;;18.10;78.70;;;;;;5033400;28;20044;-71
2022/11/25 06:42:07;;;;;;;2.13;0.50;;;18.10;78.80;;;;;;5034829;28;20018;-71
2022/11/25 06:44:32;;;;;;;1.38;0.55;;;18.10;78.80;;;;;;5031981;28;20030;-69
2022/11/25 06:46:58;;;;;;;0.80;0.40;;;18.10;78.80;;;;;;5014785;28;20025;-69
2022/11/25 06:49:24;;;;;;;1.95;1.00;;;18.10;78.80;;;;;;5014882;28;20030;-69
2022/11/25 06:51:50;;;;;;;4.63;0.57;;;18.10;78.90;;;;;;5014591;28;20018;-69
2022/11/25 06:54:15;;;;;;;2.28;0.50;;;18.10;78.90;;;;;;5013394;28;20018;-69
2022/11/25 06:56:41;;;;;;;3.35;0.43;;;18.10;78.90;;;;;;5014494;28;20490;-69
2022/11/25 06:59:07;;;;;;;3.15;0.70;;;18.10;78.80;;;;;;5013322;28;20026;-69
2022/11/25 07:01:33;;;;;;;1.67;0.70;;;18.10;79.00;;;;;;5014316;28;20109;-69
2022/11/25 07:04:03;;;;;;;4.57;0.80;;;18.10;78.70;;;;;;5013732;28;20108;-69
2022/11/25 07:06:29;;;;;;;2.08;0.70;;;18.10;77.40;;;;;;5013100;28;20026;-71
2022/11/25 07:08:55;;;;;;;2.25;0.60;;;18.00;76.90;;;;;;5013265;28;20038;-71
2022/11/25 07:11:31;;;;;;;2.60;0.55;;;18.00;76.90;;;;;;5013156;28;20036;-71
2022/11/25 07:13:58;;;;;;;3.03;0.93;;;17.90;76.80;;;;;;5013388;28;20021;-71
2022/11/25 07:16:23;;;;;;;4.20;0.70;;;17.90;76.50;;;;;;5013050;28;20018;-71
2022/11/25 07:18:49;;;;;;;4.82;1.17;;;17.90;76.50;;;;;;5014134;28;20403;-71
2022/11/25 07:21:17;;;;;;;3.95;0.70;;;17.90;76.30;;;;;;5012771;28;20125;-71
2022/11/25 07:23:43;;;;;;;1.98;0.68;;;17.90;76.20;;;;;;5029162;28;20036;-71
2022/11/25 07:26:11;;;;;;;2.25;0.70;;;17.80;76.00;;;;;;5047502;28;20028;-71
2022/11/25 07:28:36;;;;;;;4.18;0.77;;;17.80;76.00;;;;;;5064096;28;20021;-71
2022/11/25 07:31:16;;;;;;;8.50;1.00;;;17.80;75.90;;;;;;5064130;28;20028;-71
2022/11/25 07:33:42;;;;;;;5.57;0.95;;;17.80;75.90;;;;;;5046683;28;20029;-71
2022/11/25 07:36:09;;;;;;;3.38;1.15;;;17.80;75.90;;;;;;5046935;28;20022;-71
2022/11/25 07:38:34;;;;;;;8.48;2.13;;;17.80;76.00;;;;;;5063561;28;20021;-72
2022/11/25 07:41:13;;;;;;;29.58;5.28;;;17.80;76.00;;;;;;5065815;28;20033;-72
2022/11/25 07:43:39;;;;;;;40.45;6.45;;;17.80;76.30;;;;;;5048633;28;20045;-72
2022/11/25 07:46:22;;;;;;;22.48;4.68;;;17.80;76.60;;;;;;5065220;28;20483;-71
2022/11/25 07:48:48;;;;;;;26.42;4.72;;;17.80;76.70;;;;;;5031359;28;20155;-71
2022/11/25 07:51:14;;;;;;;22.65;4.13;;;17.80;76.70;;;;;;5031691;28;20125;-71
2022/11/25 07:53:40;;;;;;;21.40;4.15;;;17.80;76.70;;;;;;5032045;28;20080;-71
2022/11/25 07:56:06;;;;;;;15.23;3.90;;;17.80;76.70;;;;;;5031852;28;20512;-71
2022/11/25 07:58:32;;;;;;;19.00;3.85;;;17.70;76.70;;;;;;5030427;28;20053;-71
2022/11/25 08:01:01;;;;;;;17.90;3.90;;;17.70;76.70;;;;;;5032859;28;20022;-71
2022/11/25 08:03:27;;;;;;;21.95;4.05;;;17.70;76.60;;;;;;5015486;28;20108;-71
2022/11/25 08:05:53;;;;;;;22.30;3.85;;;17.70;76.60;;;;;;5032872;28;20101;-71
2022/11/25 08:08:18;;;;;;;20.33;3.47;;;17.70;76.60;;;;;;5032936;28;20033;-71
2022/11/25 08:10:44;;;;;;;17.23;4.13;;;17.70;76.60;;;;;;5032008;28;20120;-71
2022/11/25 08:13:10;;;;;;;18.05;3.42;;;17.70;76.50;;;;;;5032862;28;20030;-71
2022/11/25 08:15:35;;;;;;;15.70;3.80;;;17.70;76.50;;;;;;5032900;28;20022;-70
2022/11/25 08:18:01;;;;;;;15.38;3.95;;;17.70;76.50;;;;;;5031967;28;20029;-70
2022/11/25 08:20:27;;;;;;;13.15;3.20;;;17.70;76.40;;;;;;5032482;28;20025;-70
2022/11/25 08:22:53;;;;;;;16.77;3.53;;;17.70;77.40;;;;;;5032966;28;20036;-69
2022/11/25 08:25:19;;;;;;;17.45;3.13;;;17.70;76.40;;;;;;5031608;28;20030;-69
2022/11/25 08:27:44;;;;;;;13.18;3.53;;;17.60;76.30;;;;;;5031059;28;20531;-69
2022/11/25 08:30:10;;;;;;;14.13;3.13;;;17.60;76.20;;;;;;5031505;28;20108;-69
2022/11/25 08:32:37;;;;;;;11.63;3.25;;;17.70;76.30;;;;;;5019113;28;20400;-69
2022/11/25 08:35:04;;;;;;;9.10;3.20;;;17.60;76.30;;;;;;5017969;28;20025;-69
2022/11/25 08:37:30;;;;;;;13.40;3.33;;;17.60;76.20;;;;;;5032451;28;20033;-71
2022/11/25 08:39:55;;;;;;;15.82;3.40;;;17.60;76.20;;;;;;5031478;28;20071;-71
2022/11/25 08:42:21;;;;;;;16.48;3.53;;;17.60;76.20;;;;;;5031318;28;20025;-71
2022/11/25 08:44:54;;;;;;;18.67;3.28;;;17.60;76.20;;;;;;5032555;28;20025;-71
2022/11/25 08:47:20;;;;;;;11.00;2.95;;;17.60;76.20;;;;;;5031417;28;20033;-71
2022/11/25 08:49:49;;;;;;;15.00;3.25;;;17.60;76.10;;;;;;5031135;28;20052;-71
2022/11/25 08:52:15;;;;;;;10.18;2.90;;;17.60;76.10;;;;;;5031155;28;20112;-71
2022/11/25 08:54:41;;;;;;;14.70;2.95;;;17.60;76.10;;;;;;5032543;28;20520;-71
2022/11/25 08:57:06;;;;;;;13.52;3.28;;;17.60;76.00;;;;;;5032070;28;20041;-71
2022/11/25 08:59:32;;;;;;;10.27;2.88;;;17.60;76.10;;;;;;5030960;28;20022;-71
2022/11/25 09:01:57;;;;;;;7.63;2.85;;;17.60;76.00;;;;;;5032492;28;20028;-71
2022/11/25 09:04:23;;;;;;;8.85;2.83;;;17.60;76.00;;;;;;5030761;28;20013;-71
2022/11/25 09:06:49;;;;;;;11.27;2.83;;;17.60;76.00;;;;;;5019321;28;20370;-71
2022/11/25 09:09:14;;;;;;;11.55;2.92;;;17.60;75.90;;;;;;5012578;28;20022;-71
2022/11/25 09:11:41;;;;;;;9.60;2.70;;;17.60;76.00;;;;;;5011408;28;20026;-71
2022/11/25 09:14:06;;;;;;;10.23;2.70;;;17.60;75.90;;;;;;5011248;28;20018;-70
2022/11/25 09:16:32;;;;;;;12.30;2.60;;;17.50;75.90;;;;;;5012370;28;20516;-70
2022/11/25 09:18:58;;;;;;;6.90;2.30;;;17.50;75.80;;;;;;5012356;28;20121;-71
2022/11/25 09:21:24;;;;;;;10.13;2.83;;;17.50;75.80;;;;;;5012333;28;20033;-71
2022/11/25 09:23:51;;;;;;;10.45;2.63;;;17.50;75.80;;;;;;5012510;28;20034;-71
2022/11/25 09:26:27;;;;;;;8.30;2.30;;;17.50;75.80;;;;;;5011070;28;20397;-71
2022/11/25 09:28:53;;;;;;;11.55;2.60;;;17.50;75.70;;;;;;5012384;28;20026;-71
2022/11/25 09:31:18;;;;;;;9.25;2.10;;;17.50;75.70;;;;;;5011011;28;20571;-71
2022/11/25 09:33:44;;;;;;;11.10;2.55;;;17.50;75.70;;;;;;5012611;28;20116;-71
2022/11/25 09:36:11;;;;;;;7.30;2.00;;;17.50;75.80;;;;;;5011133;28;20038;-71
2022/11/25 09:38:37;;;;;;;8.98;2.53;;;17.50;75.70;;;;;;5010948;28;20022;-71
2022/11/25 09:41:03;;;;;;;6.90;2.50;;;17.50;75.80;;;;;;5014175;28;20117;-71
2022/11/25 09:49:23;;;;;;;8.80;2.15;;;17.50;75.70;;;;;;5015953;28;20522;-71
2022/11/25 09:52:07;;;;;;;10.82;2.60;;;17.50;75.70;;;;;;5015756;28;20056;-71
2022/11/25 09:54:57;;;;;;;11.07;2.85;;;17.50;75.70;;;;;;5015813;28;20496;-71
2022/11/25 09:57:31;;;;;;;7.25;2.40;;;17.50;75.70;;;;;;5013014;28;20049;-71
2022/11/25 10:00:18;;;;;;;8.82;2.70;;;17.50;75.70;;;;;;5034507;28;20025;-71
2022/11/25 10:03:11;;;;;;;5.90;1.95;;;17.50;75.70;;;;;;5035528;28;20152;-71
2022/11/25 10:05:40;;;;;;;8.15;2.30;;;17.50;75.70;;;;;;5030975;28;20014;-71
2022/11/25 10:08:14;;;;;;;7.35;2.33;;;17.50;75.70;;;;;;5014584;28;20069;-71
2022/11/25 10:10:49;;;;;;;6.95;1.98;;;17.50;75.70;;;;;;5014470;28;20104;-71
2022/11/25 10:13:28;;;;;;;7.65;2.25;;;17.50;75.70;;;;;;5014700;28;20034;-71
2022/11/25 10:15:53;;;;;;;6.55;1.98;;;17.50;75.70;;;;;;5014104;28;20028;-71
2022/11/25 10:18:25;;;;;;;6.55;1.98;;;17.50;75.70;;;;;;5014021;28;20034;-71
2022/11/25 10:20:51;;;;;;;7.70;2.00;;;17.50;75.70;;;;;;5014119;28;20025;-71
2022/11/25 10:23:21;;;;;;;8.70;2.03;;;17.50;75.70;;;;;;5014224;28;20034;-71
2022/11/25 10:25:50;;;;;;;9.93;2.10;;;17.50;75.70;;;;;;5014018;28;20022;-71
2022/11/25 10:28:17;;;;;;;6.82;1.70;;;17.50;75.70;;;;;;5013843;28;20045;-71
2022/11/25 10:30:45;;;;;;;5.43;2.08;;;17.50;75.70;;;;;;5013954;28;20026;-71
2022/11/25 10:33:12;;;;;;;7.95;1.90;;;17.50;75.70;;;;;;5015244;28;20037;-71
2022/11/25 10:35:40;;;;;;;7.15;1.90;;;17.50;75.70;;;;;;5013804;28;20026;-71
2022/11/25 10:38:10;;;;;;;6.78;1.95;;;17.50;75.70;;;;;;5013686;28;20060;-71
2022/11/25 10:40:35;;;;;;;5.43;1.73;;;17.50;75.70;;;;;;5013760;28;20480;-71
2022/11/25 10:43:07;;;;;;;5.93;1.80;;;17.50;75.70;;;;;;5013866;28;20045;-71
2022/11/25 10:45:37;;;;;;;7.07;2.10;;;17.40;75.60;;;;;;5013436;28;20022;-70
2022/11/25 10:48:16;;;;;;;7.22;2.10;;;17.50;75.70;;;;;;5013641;28;20023;-71
2022/11/25 10:51:09;;;;;;;5.93;2.00;;;17.50;75.60;;;;;;4996773;28;20026;-71
2022/11/25 10:53:35;;;;;;;4.35;1.92;;;17.50;75.60;;;;;;5013770;28;20038;-71
2022/11/25 10:56:12;;;;;;;6.18;1.45;;;17.50;75.70;;;;;;5013708;28;20033;-71
2022/11/25 10:58:38;;;;;;;8.00;2.15;;;17.40;75.60;;;;;;5023341;28;20415;-71
2022/11/25 11:01:19;;;;;;;6.07;1.80;;;17.40;75.60;;;;;;5033454;28;20037;-71
2022/11/25 11:04:06;;;;;;;5.55;1.92;;;17.50;75.70;;;;;;5034427;28;20041;-71
2022/11/25 11:06:36;;;;;;;7.57;2.13;;;17.50;75.70;;;;;;5022505;28;20480;-71
2022/11/25 11:09:02;;;;;;;6.30;2.60;;;17.50;75.70;;;;;;5014522;28;20563;-71
2022/11/25 11:11:28;;;;;;;7.07;1.80;;;17.40;75.60;;;;;;5012925;28;20040;-71
2022/11/25 11:14:15;;;;;;;6.63;1.98;;;17.40;75.60;;;;;;5013066;28;20026;-71
2022/11/25 11:16:44;;;;;;;5.90;1.83;;;17.50;75.70;;;;;;5012887;28;20489;-71
2022/11/25 11:19:23;;;;;;;3.90;1.75;;;17.40;75.60;;;;;;5012875;28;20029;-71
2022/11/25 11:21:49;;;;;;;3.10;1.50;;;17.50;75.70;;;;;;5012958;28;20017;-71
2022/11/25 11:24:36;;;;;;;3.13;1.45;;;17.40;75.60;;;;;;5013041;28;20018;-71
2022/11/25 11:27:09;;;;;;;4.07;1.48;;;17.40;75.60;;;;;;5013842;28;20028;-71
2022/11/25 11:29:35;;;;;;;7.32;1.95;;;17.40;75.60;;;;;;5012736;28;20022;-71
2022/11/25 11:32:04;;;;;;;6.75;1.67;;;17.40;75.60;;;;;;5012839;28;20034;-70
2022/11/25 11:35:21;;;;;;;6.07;1.55;;;17.50;76.70;;;;;;5012726;28;20026;-70
2022/11/25 11:37:57;;;;;;;4.97;1.40;;;17.40;75.60;;;;;;5001802;28;20068;-70
2022/11/25 11:40:36;;;;;;;6.53;1.58;;;17.40;75.70;;;;;;5012508;28;20024;-70
2022/11/25 11:43:04;;;;;;;6.20;1.50;;;17.40;75.60;;;;;;5013539;28;20477;-70
2022/11/25 11:45:36;;;;;;;4.38;1.65;;;17.40;75.70;;;;;;5013665;28;20112;-71
2022/11/25 11:48:44;;;;;;;3.25;1.23;;;17.40;75.70;;;;;;5012640;28;20555;-71
2022/11/25 11:51:16;;;;;;;5.05;1.50;;;17.40;75.70;;;;;;5012359;28;20088;-71
2022/11/25 11:54:01;;;;;;;3.63;1.55;;;17.40;75.70;;;;;;5012395;28;20034;-71
2022/11/25 11:56:41;;;;;;;5.80;1.52;;;17.50;75.70;;;;;;5013176;28;20030;-71
2022/11/25 11:59:52;;;;;;;4.95;1.30;;;17.40;75.70;;;;;;5026509;28;20039;-71
2022/11/25 12:02:46;;;;;;;6.70;1.88;;;17.40;75.70;;;;;;5031563;28;20595;-71
2022/11/25 12:05:14;;;;;;;5.75;1.75;;;17.40;75.70;;;;;;5032838;28;20492;-71
2022/11/25 12:08:02;;;;;;;3.35;1.50;;;17.40;75.70;;;;;;5031728;28;20032;-71
2022/11/25 12:10:43;;;;;;;5.47;1.73;;;17.40;75.70;;;;;;5033092;28;20496;-71
2022/11/25 12:13:31;;;;;;;3.83;1.42;;;17.40;75.70;;;;;;5032002;28;20032;-71
2022/11/25 12:16:03;;;;;;;3.42;1.38;;;17.40;75.70;;;;;;5031937;28;20087;-71
2022/11/25 12:18:45;;;;;;;4.65;2.10;;;17.50;75.80;;;;;;5032684;28;20033;-71
2022/11/25 12:21:36;;;;;;;7.53;1.50;;;17.40;75.70;;;;;;5031701;28;20025;-71
2022/11/25 12:24:29;;;;;;;4.63;1.73;;;17.40;75.70;;;;;;5032974;28;20021;-71
2022/11/25 12:27:04;;;;;;;5.00;1.42;;;17.50;75.80;;;;;;5031309;28;20045;-71
2022/11/25 12:29:40;;;;;;;4.28;1.58;;;17.50;75.70;;;;;;5015775;28;20021;-71
2022/11/25 12:32:32;;;;;;;5.80;1.42;;;17.50;75.70;;;;;;5031580;28;20053;-71
2022/11/25 12:35:09;;;;;;;3.50;1.00;;;17.50;75.80;;;;;;4991318;28;20165;-71
2022/11/25 12:38:03;;;;;;;5.75;1.65;;;17.50;75.80;;;;;;4991026;28;20604;-71
2022/11/25 12:41:09;;;;;;;5.53;1.70;;;17.50;75.80;;;;;;4987186;28;20488;-71
2022/11/25 12:43:42;;;;;;;3.83;1.50;;;17.50;75.80;;;;;;4970281;28;20042;-71
2022/11/25 12:46:28;;;;;;;3.67;1.35;;;17.50;75.80;;;;;;4974910;28;20398;-71
2022/11/25 12:48:55;;;;;;;6.28;1.35;;;17.50;75.80;;;;;;4974849;28;20030;-71
2022/11/25 12:51:23;;;;;;;4.05;1.38;;;17.50;75.70;;;;;;4975040;28;20049;-71
2022/11/25 12:54:10;;;;;;;5.18;1.33;;;17.50;75.70;;;;;;4990966;28;20030;-71
2022/11/25 12:56:54;;;;;;;7.25;2.13;;;17.50;75.70;;;;;;4990872;28;20050;-71
2022/11/25 12:59:57;;;;;;;4.85;1.27;;;17.50;75.70;;;;;;4990870;28;20054;-71
2022/11/25 13:02:35;;;;;;;2.88;1.35;;;17.50;75.70;;;;;;5007162;28;20034;-71
2022/11/25 13:05:34;;;;;;;5.03;1.38;;;17.50;75.80;;;;;;5007020;28;20494;-71
2022/11/25 13:08:25;;;;;;;2.92;1.33;;;17.50;75.80;;;;;;4926098;29;20044;-71